Time;durP1;ratioP1;P1;durP2;ratioP2;P2;SDS_P1;SDS_P2;PMS_P1;PMS_P2;Temp;Humidity;BMP_temperature;BMP_pressure;BME280_temperature;BME280_humidity;BME280_pressure;Samples;Min_cycle;Max_cycle;Signal;HPM_P1;HPM_P2
2021/11/09 00:00:13;;;;;;;10.88;2.88;;;14.60;99.90;;;;;;5114759;28;20080;-78
2021/11/09 00:02:41;;;;;;;13.13;3.05;;;14.60;99.90;;;;;;5113699;28;20058;-80
2021/11/09 00:05:09;;;;;;;8.90;2.30;;;14.50;99.90;;;;;;5096761;28;20081;-80
2021/11/09 00:07:59;;;;;;;10.02;2.50;;;14.50;99.90;;;;;;5114711;28;20390;-79
2021/11/09 00:10:23;;;;;;;9.80;2.13;;;14.40;99.90;;;;;;5113141;28;20119;-78
2021/11/09 00:12:53;;;;;;;8.60;2.38;;;14.40;99.90;;;;;;5113107;28;20031;-81
2021/11/09 00:15:21;;;;;;;8.73;2.70;;;14.40;99.90;;;;;;5114384;28;20522;-79
2021/11/09 00:17:50;;;;;;;10.40;3.35;;;14.40;99.90;;;;;;5114319;28;20027;-78
2021/11/09 00:20:19;;;;;;;12.60;2.35;;;14.50;99.90;;;;;;5113081;28;20035;-78
2021/11/09 00:22:45;;;;;;;12.15;3.15;;;14.50;99.90;;;;;;5114384;28;20054;-78
2021/11/09 00:25:13;;;;;;;12.75;3.78;;;14.50;99.90;;;;;;5096086;28;20443;-79
2021/11/09 00:27:39;;;;;;;9.27;2.72;;;14.60;99.90;;;;;;5095822;28;20055;-80
2021/11/09 00:30:07;;;;;;;10.00;2.53;;;14.60;99.90;;;;;;5114007;28;20053;-78
2021/11/09 00:32:34;;;;;;;10.07;2.97;;;14.70;99.90;;;;;;5112679;28;20028;-79
2021/11/09 00:35:00;;;;;;;;;;;14.70;99.90;;;;;;5113191;28;20039;-80
2021/11/09 00:37:26;;;;;;;12.40;2.70;;;14.70;99.90;;;;;;5114101;28;19911;-81
2021/11/09 00:39:52;;;;;;;9.90;2.47;;;14.80;99.90;;;;;;5113967;28;20156;-79
2021/11/09 00:42:18;;;;;;;10.82;3.05;;;14.80;99.90;;;;;;5112619;28;20055;-79
2021/11/09 00:44:43;;;;;;;14.25;2.95;;;14.80;99.90;;;;;;5113754;28;20468;-77
2021/11/09 00:47:09;;;;;;;8.68;2.30;;;14.80;99.90;;;;;;5112299;28;20048;-79
2021/11/09 00:49:36;;;;;;;7.32;2.10;;;14.80;99.90;;;;;;5112595;28;20385;-78
2021/11/09 00:52:02;;;;;;;11.13;2.78;;;14.90;99.90;;;;;;5113701;27;20492;-77
2021/11/09 00:54:28;;;;;;;8.13;2.25;;;14.90;99.90;;;;;;5113503;28;20020;-79
2021/11/09 00:56:54;;;;;;;13.55;3.40;;;14.90;99.90;;;;;;5112374;28;20457;-78
2021/11/09 00:59:20;;;;;;;;;;;14.90;99.90;;;;;;5095936;28;20031;-79
2021/11/09 01:01:46;;;;;;;7.22;2.53;;;15.00;99.90;;;;;;5113503;28;20385;-77
2021/11/09 01:04:12;;;;;;;12.63;3.17;;;15.00;99.90;;;;;;5113562;28;20110;-77
2021/11/09 01:06:38;;;;;;;12.82;2.78;;;15.00;99.90;;;;;;5113637;28;20414;-77
2021/11/09 01:09:06;;;;;;;6.00;2.15;;;15.00;99.90;;;;;;5113404;28;20474;-77
2021/11/09 01:11:33;;;;;;;9.20;2.67;;;15.00;99.90;;;;;;5112161;28;20028;-78
2021/11/09 01:14:00;;;;;;;10.40;2.22;;;15.10;99.80;;;;;;5113322;28;20120;-78
2021/11/09 01:16:26;;;;;;;13.27;2.35;;;15.10;99.90;;;;;;5112039;28;20027;-77
2021/11/09 01:18:57;;;;;;;8.45;2.35;;;15.10;99.70;;;;;;5113464;28;20023;-78
2021/11/09 01:21:23;;;;;;;10.18;2.38;;;15.10;99.70;;;;;;5095203;28;20039;-79
2021/11/09 01:23:51;;;;;;;11.68;3.40;;;15.10;99.70;;;;;;5095019;28;20073;-78
2021/11/09 01:26:17;;;;;;;11.82;2.30;;;15.10;99.60;;;;;;5112024;28;20024;-76
2021/11/09 01:28:45;;;;;;;;;;;15.10;99.60;;;;;;5112128;28;20064;-78
2021/11/09 01:31:11;;;;;;;;;;;15.10;99.60;;;;;;5112010;28;19912;-79
2021/11/09 01:33:38;;;;;;;10.48;2.33;;;15.20;99.60;;;;;;5112869;28;19904;-79
2021/11/09 01:36:05;;;;;;;16.15;3.03;;;15.10;99.50;;;;;;5111483;28;20423;-77
2021/11/09 01:38:32;;;;;;;12.00;2.42;;;15.10;99.40;;;;;;5094745;28;20032;-77
2021/11/09 01:40:58;;;;;;;10.23;2.38;;;15.10;99.40;;;;;;5112776;28;20020;-78
2021/11/09 01:43:26;;;;;;;5.80;2.08;;;15.10;99.50;;;;;;5112748;28;20026;-78
2021/11/09 01:45:54;;;;;;;9.93;2.17;;;15.10;99.40;;;;;;5112405;28;20020;-77
2021/11/09 01:48:20;;;;;;;8.02;1.90;;;15.20;99.30;;;;;;5112582;28;20028;-79
2021/11/09 01:50:54;;;;;;;12.45;2.50;;;15.10;99.20;;;;;;5112590;28;20309;-79
2021/11/09 01:53:20;;;;;;;9.77;1.90;;;15.10;99.20;;;;;;5111308;28;20419;-79
2021/11/09 01:55:47;;;;;;;7.38;1.75;;;15.20;99.10;;;;;;5110544;28;20024;-78
2021/11/09 01:58:14;;;;;;;12.77;2.47;;;15.20;98.90;;;;;;5111251;28;20023;-77
2021/11/09 02:00:48;;;;;;;4.78;1.70;;;15.20;98.80;;;;;;5111011;28;20028;-80
2021/11/09 02:03:14;;;;;;;9.90;1.63;;;15.20;98.80;;;;;;5110972;28;20054;-78
2021/11/09 02:05:42;;;;;;;6.82;2.30;;;15.20;98.70;;;;;;5111100;28;20528;-76
2021/11/09 02:08:08;;;;;;;9.60;2.05;;;15.20;98.70;;;;;;5112261;28;20367;-77
2021/11/09 02:10:38;;;;;;;9.93;2.10;;;15.20;98.70;;;;;;5111019;28;20436;-77
2021/11/09 02:13:04;;;;;;;9.60;1.85;;;15.20;98.70;;;;;;5111411;28;20031;-79
2021/11/09 02:15:32;;;;;;;12.00;2.45;;;15.20;98.70;;;;;;5112219;28;20028;-79
2021/11/09 02:17:59;;;;;;;7.95;1.67;;;15.10;98.70;;;;;;5112174;28;20031;-78
2021/11/09 02:20:28;;;;;;;11.90;2.92;;;15.10;98.70;;;;;;5110874;28;20066;-77
2021/11/09 02:22:55;;;;;;;9.40;1.80;;;15.10;98.60;;;;;;5112115;28;20038;-78
2021/11/09 02:25:22;;;;;;;5.70;1.52;;;15.10;98.70;;;;;;5111196;28;20028;-77
2021/11/09 02:27:49;;;;;;;11.50;3.10;;;15.10;98.50;;;;;;5093737;28;20383;-78
2021/11/09 02:30:19;;;;;;;8.32;2.58;;;15.10;98.50;;;;;;5111869;28;20031;-78
2021/11/09 02:32:46;;;;;;;5.47;1.67;;;15.10;98.50;;;;;;5110670;28;20016;-78
2021/11/09 02:35:15;;;;;;;8.38;1.40;;;15.00;98.40;;;;;;5110568;28;20028;-80
2021/11/09 02:37:41;;;;;;;7.47;1.63;;;15.00;98.40;;;;;;5094274;28;20028;-78
2021/11/09 02:40:09;;;;;;;9.73;1.77;;;14.90;98.30;;;;;;5111871;28;20027;-78
2021/11/09 02:42:39;;;;;;;6.57;1.58;;;14.90;98.40;;;;;;5111729;28;20085;-78
2021/11/09 02:45:27;;;;;;;7.75;2.33;;;14.90;98.50;;;;;;5110532;28;20423;-78
2021/11/09 02:48:22;;;;;;;6.53;1.75;;;14.80;98.60;;;;;;5111532;28;20039;-78
2021/11/09 02:50:49;;;;;;;7.82;1.58;;;14.90;98.60;;;;;;5111478;28;20548;-78
2021/11/09 02:53:28;;;;;;;12.93;1.70;;;14.90;98.50;;;;;;5111696;28;20466;-79
2021/11/09 02:56:19;;;;;;;7.95;1.80;;;15.00;98.50;;;;;;5110579;28;20035;-79
2021/11/09 03:06:35;;;;;;;7.65;1.35;;;15.00;98.20;;;;;;5110390;28;20024;-79
2021/11/09 03:09:15;;;;;;;7.03;2.40;;;14.90;98.10;;;;;;5081227;28;20083;-80
2021/11/09 03:11:52;;;;;;;7.50;1.50;;;14.90;98.10;;;;;;5115801;28;20059;-80
2021/11/09 03:14:20;;;;;;;9.88;1.30;;;14.90;98.10;;;;;;5114308;28;20042;-79
2021/11/09 03:16:46;;;;;;;8.10;1.45;;;14.90;98.10;;;;;;5115633;28;20438;-79
2021/11/09 03:46:34;;;;;;;5.35;1.25;;;15.00;97.50;;;;;;5115075;28;20413;-79
2021/11/09 03:49:02;;;;;;;8.40;1.10;;;15.00;97.40;;;;;;5079920;28;20024;-78
2021/11/09 03:51:28;;;;;;;8.40;2.20;;;15.10;97.40;;;;;;5096914;28;20028;-79
2021/11/09 03:53:58;;;;;;;7.40;1.33;;;15.00;97.40;;;;;;5113485;28;20441;-80
2021/11/09 03:56:30;;;;;;;8.68;1.35;;;15.10;97.40;;;;;;5113706;28;20023;-78
2021/11/09 03:58:58;;;;;;;8.45;1.90;;;15.00;97.40;;;;;;5113694;28;20031;-79
2021/11/09 04:01:32;;;;;;;5.35;1.10;;;15.00;97.40;;;;;;5114742;28;20470;-80
2021/11/09 04:04:23;;;;;;;6.05;1.45;;;15.00;97.40;;;;;;5114702;28;20046;-78
2021/11/09 04:07:00;;;;;;;6.75;1.45;;;15.00;97.40;;;;;;5100339;28;20020;-78
2021/11/09 04:09:35;;;;;;;9.18;1.55;;;15.00;97.50;;;;;;5113609;28;20381;-79
2021/11/09 04:12:11;;;;;;;7.18;1.67;;;15.00;97.60;;;;;;5097825;28;20035;-78
2021/11/09 04:14:47;;;;;;;8.13;1.70;;;14.90;97.70;;;;;;5113167;28;20434;-78
2021/11/09 04:17:20;;;;;;;8.10;1.25;;;14.90;97.80;;;;;;5113375;28;20023;-78
2021/11/09 04:19:56;;;;;;;3.92;1.25;;;14.80;97.90;;;;;;5096977;28;20310;-78
2021/11/09 05:01:04;;;;;;;12.45;2.58;;;14.30;99.90;;;;;;5113974;28;20115;-77
2021/11/09 05:09:43;;;;;;;9.13;1.48;;;14.20;99.90;;;;;;5112637;28;20594;-76
2021/11/09 05:12:09;;;;;;;5.97;1.42;;;14.20;99.90;;;;;;5111968;28;20035;-79
2021/11/09 05:14:35;;;;;;;8.15;1.98;;;14.20;99.90;;;;;;5113248;28;20398;-77
2021/11/09 05:17:01;;;;;;;5.05;1.40;;;14.20;99.90;;;;;;5113269;28;20043;-77
2021/11/09 05:19:28;;;;;;;4.93;1.52;;;14.20;99.90;;;;;;5113224;28;20035;-77
2021/11/09 05:21:54;;;;;;;8.23;1.38;;;14.20;99.90;;;;;;5111895;28;20508;-77
2021/11/09 05:24:20;;;;;;;5.22;1.00;;;14.20;99.90;;;;;;5113268;28;20035;-78
2021/11/09 05:26:47;;;;;;;6.72;1.15;;;14.20;99.90;;;;;;5111646;28;20027;-78
2021/11/09 05:29:13;;;;;;;3.55;1.20;;;14.20;99.90;;;;;;5111670;28;20020;-78
2021/11/09 05:31:40;;;;;;;3.03;0.95;;;14.20;99.90;;;;;;5112141;28;20028;-78
2021/11/09 05:34:07;;;;;;;4.70;1.10;;;14.20;99.90;;;;;;5111722;28;20381;-77
2021/11/09 05:36:39;;;;;;;3.88;1.02;;;14.30;99.90;;;;;;5112827;28;20118;-78
2021/11/09 05:39:18;;;;;;;2.20;0.80;;;14.30;99.90;;;;;;5113023;28;20069;-78
2021/11/09 05:41:45;;;;;;;2.58;0.80;;;14.30;99.90;;;;;;5112755;28;20107;-77
2021/11/09 05:44:12;;;;;;;2.67;0.90;;;14.40;99.90;;;;;;5112703;28;20438;-77
2021/11/09 05:46:40;;;;;;;2.53;0.93;;;14.40;99.90;;;;;;5111422;28;20048;-77
2021/11/09 05:49:06;;;;;;;3.75;1.00;;;14.40;99.90;;;;;;5112696;28;20019;-77
2021/11/09 05:51:34;;;;;;;5.82;0.82;;;14.40;99.90;;;;;;5113180;28;20527;-78
2021/11/09 05:54:03;;;;;;;2.60;0.73;;;14.40;99.90;;;;;;5113309;28;20365;-78
2021/11/09 05:56:29;;;;;;;3.20;0.68;;;14.40;99.90;;;;;;5112820;28;20377;-79
2021/11/09 05:58:55;;;;;;;;;;;14.40;99.90;;;;;;5111664;28;20028;-78
2021/11/09 06:01:21;;;;;;;2.28;0.60;;;14.50;99.90;;;;;;5111054;28;19931;-77
2021/11/09 06:03:47;;;;;;;2.55;0.70;;;14.50;99.90;;;;;;5094126;28;20490;-78
2021/11/09 06:06:12;;;;;;;3.53;0.68;;;14.40;99.90;;;;;;5111087;28;20071;-78
2021/11/09 06:08:38;;;;;;;2.33;0.55;;;14.50;99.90;;;;;;5094246;28;20034;-78
2021/11/09 06:11:04;;;;;;;2.70;0.68;;;14.50;99.90;;;;;;5110977;28;20027;-77
2021/11/09 06:13:30;;;;;;;3.63;0.55;;;14.50;99.90;;;;;;5110958;28;20477;-77
2021/11/09 06:15:56;;;;;;;2.25;0.35;;;14.50;99.90;;;;;;5112236;28;20043;-77
2021/11/09 06:18:22;;;;;;;4.15;1.13;;;14.50;99.90;;;;;;5112289;28;20023;-78
2021/11/09 06:20:47;;;;;;;1.27;0.28;;;14.60;99.90;;;;;;5077660;28;20496;-78
2021/11/09 06:23:13;;;;;;;2.38;0.28;;;14.60;99.90;;;;;;5112298;28;20031;-78
2021/11/09 06:25:40;;;;;;;2.05;0.40;;;14.60;99.90;;;;;;5110838;28;20118;-76
2021/11/09 06:28:06;;;;;;;2.63;0.60;;;14.60;99.90;;;;;;5110403;28;20032;-79
2021/11/09 06:30:33;;;;;;;1.48;0.20;;;14.60;99.90;;;;;;5112041;28;20034;-78
2021/11/09 06:32:59;;;;;;;2.40;0.50;;;14.60;99.90;;;;;;5112060;28;20020;-78
2021/11/09 06:35:25;;;;;;;;;;;14.60;99.90;;;;;;5112616;28;20031;-78
2021/11/09 06:37:51;;;;;;;0.90;0.30;;;14.70;99.90;;;;;;5111799;28;19915;-77
2021/11/09 06:40:17;;;;;;;0.38;0.22;;;14.70;99.90;;;;;;5111962;28;20027;-79
2021/11/09 06:42:43;;;;;;;1.10;0.28;;;14.70;99.90;;;;;;5110494;28;20039;-80
2021/11/09 06:45:09;;;;;;;1.67;0.22;;;14.70;99.90;;;;;;5110408;28;20043;-76
2021/11/09 06:47:35;;;;;;;;;;;14.70;99.90;;;;;;5110399;28;20047;-80
2021/11/09 06:50:03;;;;;;;1.63;0.40;;;14.70;99.90;;;;;;5111446;28;19908;-76
2021/11/09 06:52:28;;;;;;;0.57;0.20;;;14.70;99.90;;;;;;5111849;28;20409;-75
2021/11/09 06:54:54;;;;;;;1.10;0.20;;;14.70;99.90;;;;;;5110538;28;20027;-77
2021/11/09 06:57:20;;;;;;;1.05;0.40;;;14.70;99.90;;;;;;5111941;28;20039;-78
2021/11/09 06:59:47;;;;;;;1.40;0.47;;;14.70;99.90;;;;;;5110439;28;20016;-77
2021/11/09 07:02:13;;;;;;;2.67;0.70;;;14.70;99.90;;;;;;5093950;28;20390;-76
2021/11/09 07:04:39;;;;;;;1.75;0.60;;;14.70;99.90;;;;;;5112319;28;20068;-78
2021/11/09 07:07:06;;;;;;;1.23;0.40;;;14.70;99.90;;;;;;5112289;28;20070;-78
2021/11/09 07:09:32;;;;;;;1.77;0.57;;;14.60;99.90;;;;;;5111054;28;20384;-78
2021/11/09 07:11:57;;;;;;;1.05;0.45;;;14.60;99.90;;;;;;5110619;28;20019;-79
2021/11/09 07:14:23;;;;;;;1.73;0.85;;;14.60;99.90;;;;;;5110370;28;20128;-77
2021/11/09 07:16:52;;;;;;;1.50;0.55;;;14.60;99.90;;;;;;5111557;28;20028;-78
2021/11/09 07:19:18;;;;;;;1.98;0.70;;;14.60;99.90;;;;;;5111636;28;20030;-76
2021/11/09 07:21:46;;;;;;;3.63;1.35;;;14.60;99.90;;;;;;5110287;28;20038;-78
2021/11/09 07:24:12;;;;;;;3.08;0.77;;;14.60;99.90;;;;;;5111593;28;20027;-77
2021/11/09 07:26:38;;;;;;;1.95;0.50;;;14.60;99.90;;;;;;5111252;28;20034;-79
2021/11/09 07:29:03;;;;;;;2.83;1.00;;;14.60;99.90;;;;;;5109842;28;20020;-78
2021/11/09 07:31:31;;;;;;;2.88;0.70;;;14.50;99.90;;;;;;5111145;28;20373;-78
2021/11/09 07:33:58;;;;;;;2.78;0.90;;;14.50;99.90;;;;;;5109795;28;20118;-77
2021/11/09 07:36:25;;;;;;;2.60;0.80;;;14.60;99.90;;;;;;5111329;28;20024;-77
2021/11/09 07:38:51;;;;;;;2.90;1.20;;;14.50;99.90;;;;;;5109899;28;20416;-78
2021/11/09 07:41:17;;;;;;;3.00;1.20;;;14.60;99.90;;;;;;5109887;28;20081;-79
2021/11/09 07:43:43;;;;;;;2.70;1.08;;;14.50;99.90;;;;;;5111056;28;20360;-79
2021/11/09 07:46:08;;;;;;;4.40;1.33;;;14.50;99.90;;;;;;5109361;28;20052;-79
2021/11/09 07:48:34;;;;;;;3.50;1.13;;;14.60;99.90;;;;;;5110806;28;20388;-78
2021/11/09 07:51:00;;;;;;;2.90;1.15;;;14.60;99.90;;;;;;5109273;28;20047;-78
2021/11/09 07:53:30;;;;;;;3.35;1.38;;;14.50;99.90;;;;;;5110588;28;20035;-76
2021/11/09 07:56:16;;;;;;;3.97;1.60;;;14.50;99.90;;;;;;5096800;28;20024;-71
2021/11/09 08:01:10;;;;;;;3.60;1.55;;;14.50;99.90;;;;;;5112477;28;20031;-75
2021/11/09 08:03:43;;;;;;;6.18;1.95;;;14.60;99.90;;;;;;5113967;28;20034;-76
2021/11/09 08:08:41;;;;;;;3.70;1.70;;;14.60;99.90;;;;;;5113331;28;20080;-77
2021/11/09 08:11:08;;;;;;;4.18;1.80;;;14.60;99.90;;;;;;5113192;28;20020;-79
2021/11/09 08:13:33;;;;;;;5.50;1.80;;;14.60;99.90;;;;;;5113408;28;20050;-77
2021/11/09 08:15:59;;;;;;;7.00;1.98;;;14.60;99.90;;;;;;5113644;28;20063;-77
2021/11/09 08:18:25;;;;;;;4.85;1.98;;;14.60;99.90;;;;;;5114492;28;20024;-77
2021/11/09 08:20:51;;;;;;;4.88;1.98;;;14.70;99.90;;;;;;5113294;28;20035;-78
2021/11/09 08:23:16;;;;;;;6.30;2.00;;;14.70;99.90;;;;;;5113169;28;20020;-78
2021/11/09 08:25:42;;;;;;;3.95;1.73;;;14.70;99.90;;;;;;5112225;28;20073;-77
2021/11/09 08:28:08;;;;;;;6.03;2.22;;;14.70;99.90;;;;;;5113596;28;20462;-78
2021/11/09 08:30:34;;;;;;;4.82;1.83;;;14.70;99.90;;;;;;5112085;28;20031;-79
2021/11/09 08:33:03;;;;;;;6.13;2.30;;;14.70;99.90;;;;;;5112643;28;20150;-77
2021/11/09 08:35:29;;;;;;;4.85;2.15;;;14.70;99.90;;;;;;5096140;28;20081;-78
2021/11/09 08:37:55;;;;;;;;;;;14.70;99.90;;;;;;5114147;28;20109;-77
2021/11/09 08:40:22;;;;;;;6.00;2.05;;;14.70;99.90;;;;;;5112562;28;20079;-79
2021/11/09 08:42:53;;;;;;;5.55;2.15;;;14.70;99.90;;;;;;5112933;28;20019;-78
2021/11/09 08:45:28;;;;;;;3.90;1.55;;;14.70;99.90;;;;;;5113315;28;20035;-77
2021/11/09 08:47:59;;;;;;;4.97;2.10;;;14.70;99.90;;;;;;5096281;28;20063;-77
2021/11/09 08:50:26;;;;;;;8.43;2.55;;;14.70;99.90;;;;;;5113234;28;20027;-77
2021/11/09 08:52:55;;;;;;;6.53;2.28;;;14.80;99.90;;;;;;5112118;28;20016;-76
2021/11/09 09:05:24;;;;;;;4.70;2.05;;;15.00;99.90;;;;;;5111236;28;20111;-78
2021/11/09 09:07:50;;;;;;;5.57;2.00;;;15.00;99.90;;;;;;5111775;28;20035;-77
2021/11/09 09:10:16;;;;;;;7.07;2.53;;;15.00;99.90;;;;;;5107819;28;20030;-76
2021/11/09 09:12:45;;;;;;;6.25;2.50;;;15.00;99.90;;;;;;5100585;28;20016;-78
2021/11/09 09:15:12;;;;;;;5.95;2.53;;;15.10;99.90;;;;;;5099901;28;20458;-77
2021/11/09 09:17:38;;;;;;;4.55;2.15;;;15.10;99.90;;;;;;5101655;28;20038;-79
2021/11/09 09:20:13;;;;;;;5.15;2.00;;;15.10;99.90;;;;;;5101026;28;20032;-77
2021/11/09 09:22:45;;;;;;;6.13;2.17;;;15.10;99.90;;;;;;5097805;28;20032;-77
2021/11/09 09:52:36;;;;;;;2.35;0.88;;;15.10;99.90;;;;;;5101312;28;20509;-77
2021/11/09 09:57:48;;;;;;;1.95;0.70;;;15.20;99.90;;;;;;5112210;28;20435;-77
2021/11/09 10:00:15;;;;;;;2.13;0.60;;;15.20;99.90;;;;;;5111720;28;20026;-77
2021/11/09 10:02:56;;;;;;;3.50;0.65;;;15.30;99.90;;;;;;5110224;28;20027;-77
2021/11/09 10:05:23;;;;;;;3.75;0.82;;;15.40;99.90;;;;;;5112133;28;20028;-77
2021/11/09 10:07:55;;;;;;;2.90;1.10;;;15.40;99.90;;;;;;5110926;28;20064;-79
2021/11/09 10:10:30;;;;;;;2.08;0.80;;;15.40;99.90;;;;;;5114143;28;20024;-78
2021/11/09 10:13:01;;;;;;;2.05;0.80;;;15.50;99.90;;;;;;5112455;28;20055;-79
2021/11/09 10:15:32;;;;;;;2.72;0.75;;;15.50;99.90;;;;;;5110432;28;20024;-80
2021/11/09 10:18:06;;;;;;;3.10;0.93;;;15.50;99.90;;;;;;5109941;28;20501;-80
2021/11/09 10:20:36;;;;;;;2.20;0.88;;;15.50;99.90;;;;;;5110164;28;20031;-78
2021/11/09 10:23:07;;;;;;;3.83;1.20;;;15.50;99.90;;;;;;5111310;28;20389;-76
2021/11/09 10:25:34;;;;;;;3.78;1.55;;;15.50;99.90;;;;;;5111154;28;20031;-76
2021/11/09 10:28:11;;;;;;;6.03;2.45;;;15.50;99.90;;;;;;5093075;28;20039;-77
2021/11/09 10:30:54;;;;;;;4.13;1.83;;;15.40;99.90;;;;;;5111577;27;20060;-76
2021/11/09 10:33:23;;;;;;;4.10;1.45;;;15.40;99.90;;;;;;5106857;28;20097;-78
2021/11/09 10:35:49;;;;;;;3.15;1.40;;;15.50;99.90;;;;;;5096436;28;20020;-78
2021/11/09 10:38:15;;;;;;;1.65;0.80;;;15.70;99.90;;;;;;5108459;28;20031;-78
2021/11/09 10:40:49;;;;;;;3.95;1.17;;;15.90;99.90;;;;;;5098999;28;20046;-78
2021/11/09 10:43:17;;;;;;;2.85;0.95;;;16.00;99.90;;;;;;5112417;28;20026;-78
2021/11/09 10:45:43;;;;;;;3.22;1.42;;;16.00;99.90;;;;;;5090253;28;20024;-78
2021/11/09 10:48:13;;;;;;;4.10;1.63;;;16.00;99.90;;;;;;5100009;28;20034;-78
2021/11/09 10:50:43;;;;;;;7.07;2.20;;;16.00;99.90;;;;;;5093184;28;20373;-78
2021/11/09 10:53:21;;;;;;;4.93;1.92;;;16.00;99.90;;;;;;5099518;28;20024;-78
2021/11/09 11:04:40;;;;;;;3.83;1.88;;;15.80;99.80;;;;;;5100170;28;20038;-79
2021/11/09 11:07:08;;;;;;;4.50;1.60;;;15.80;99.90;;;;;;5099818;28;20500;-79
2021/11/09 11:09:40;;;;;;;5.38;1.80;;;15.90;99.90;;;;;;5094561;28;20030;-78
2021/11/09 11:12:11;;;;;;;2.90;1.30;;;16.10;99.90;;;;;;5101432;28;20012;-78
2021/11/09 11:14:42;;;;;;;4.05;1.10;;;16.30;99.90;;;;;;5108024;28;20398;-79
2021/11/09 11:17:12;;;;;;;4.88;1.58;;;16.50;99.70;;;;;;5099863;28;20164;-78
2021/11/09 11:19:42;;;;;;;3.10;1.10;;;16.50;98.90;;;;;;5091117;28;20119;-77
2021/11/09 11:22:36;;;;;;;7.00;2.05;;;16.40;98.60;;;;;;5103763;28;20484;-79
2021/11/09 11:25:02;;;;;;;6.68;2.30;;;16.40;98.60;;;;;;5092852;28;20459;-76
2021/11/09 11:27:32;;;;;;;7.00;2.40;;;16.30;98.30;;;;;;5101704;28;20039;-76
2021/11/09 11:29:59;;;;;;;3.58;1.20;;;16.20;98.30;;;;;;5105606;28;20108;-76
2021/11/09 11:32:25;;;;;;;4.20;1.42;;;16.20;98.20;;;;;;5105120;28;20105;-78
2021/11/09 11:34:52;;;;;;;5.07;1.45;;;16.20;98.20;;;;;;5101776;28;20454;-77
2021/11/09 11:37:21;;;;;;;;;;;16.20;97.90;;;;;;5097884;28;20089;-78
2021/11/09 11:39:51;;;;;;;5.10;1.95;;;16.20;97.70;;;;;;5107526;28;20338;-79
2021/11/09 11:42:18;;;;;;;3.75;1.60;;;16.10;97.40;;;;;;5100014;28;20039;-77
2021/11/09 11:44:53;;;;;;;4.15;1.52;;;16.10;97.90;;;;;;5104088;28;20027;-77
2021/11/09 11:47:21;;;;;;;4.93;2.08;;;16.30;98.00;;;;;;5100213;28;20043;-77
2021/11/09 11:49:59;;;;;;;6.25;2.70;;;16.40;97.40;;;;;;5087143;28;20058;-78
2021/11/09 11:52:32;;;;;;;4.93;1.95;;;16.60;97.00;;;;;;5103664;28;20453;-77
2021/11/09 11:55:03;;;;;;;6.22;1.90;;;16.50;96.60;;;;;;5111182;28;20023;-77
2021/11/09 11:57:49;;;;;;;5.03;1.60;;;16.40;96.50;;;;;;5106778;27;20065;-78
2021/11/09 12:00:26;;;;;;;4.60;1.50;;;16.30;96.20;;;;;;5105637;28;20386;-80
2021/11/09 12:02:52;;;;;;;4.40;1.70;;;16.20;96.30;;;;;;5105031;28;20490;-80
2021/11/09 12:05:39;;;;;;;4.70;1.85;;;16.20;96.40;;;;;;5106015;28;20032;-78
2021/11/09 12:08:14;;;;;;;4.43;2.00;;;16.20;96.50;;;;;;5100317;28;20031;-80
2021/11/09 12:10:48;;;;;;;3.70;1.50;;;16.30;96.40;;;;;;5110345;28;20041;-79
2021/11/09 12:13:15;;;;;;;6.35;2.10;;;16.30;96.30;;;;;;5104261;28;20072;-78
2021/11/09 12:16:00;;;;;;;4.47;1.30;;;16.30;96.30;;;;;;5101985;28;20020;-79
2021/11/09 12:18:31;;;;;;;4.47;1.20;;;16.50;96.50;;;;;;5095239;28;20028;-75
2021/11/09 12:20:59;;;;;;;2.10;0.90;;;16.80;96.40;;;;;;5098768;28;20032;-79
2021/11/09 12:23:30;;;;;;;3.53;1.00;;;17.00;96.40;;;;;;5101096;28;20095;-77
2021/11/09 12:25:56;;;;;;;2.58;1.02;;;17.20;96.00;;;;;;5105075;28;20408;-77
2021/11/09 12:28:34;;;;;;;3.28;1.15;;;17.20;95.50;;;;;;5114888;28;20028;-76
2021/11/09 12:31:09;;;;;;;5.47;1.00;;;17.10;95.20;;;;;;5103367;28;20047;-77
2021/11/09 12:33:46;;;;;;;3.55;1.30;;;17.00;95.40;;;;;;5115662;28;20031;-75
2021/11/09 12:36:11;;;;;;;4.40;1.10;;;17.00;95.30;;;;;;5111928;28;20050;-80
2021/11/09 12:38:46;;;;;;;4.90;1.10;;;17.00;95.20;;;;;;5102993;28;20059;-76
2021/11/09 12:41:17;;;;;;;6.72;1.70;;;16.90;95.00;;;;;;5102592;28;20032;-78
2021/11/09 12:43:49;;;;;;;4.30;0.90;;;16.80;94.80;;;;;;5101681;28;20024;-78
2021/11/09 12:46:23;;;;;;;6.25;1.35;;;16.80;94.70;;;;;;5097618;28;20101;-78
2021/11/09 12:48:55;;;;;;;7.65;1.75;;;16.90;94.60;;;;;;5104954;28;20019;-78
2021/11/09 12:51:26;;;;;;;5.15;1.13;;;16.90;94.30;;;;;;5109831;28;20024;-77
2021/11/09 12:53:53;;;;;;;5.53;1.20;;;16.80;93.90;;;;;;5106259;28;20012;-76
2021/11/09 12:56:33;;;;;;;4.20;1.27;;;16.80;93.90;;;;;;5113735;28;20027;-75
2021/11/09 12:59:47;;;;;;;8.10;1.98;;;16.80;93.40;;;;;;5114429;28;20065;-75
2021/11/09 13:02:18;;;;;;;8.93;1.43;;;16.70;93.30;;;;;;5113566;28;20036;-76
2021/11/09 13:04:54;;;;;;;6.47;1.77;;;16.70;93.20;;;;;;5112221;28;20084;-76
2021/11/09 13:07:33;;;;;;;8.32;1.65;;;16.60;93.20;;;;;;5114529;28;20022;-76
2021/11/09 13:10:08;;;;;;;8.70;1.67;;;16.60;93.40;;;;;;5114684;28;20019;-76
2021/11/09 13:12:36;;;;;;;9.52;2.00;;;16.70;93.20;;;;;;5114320;28;20019;-74
2021/11/09 13:15:08;;;;;;;9.18;1.85;;;16.90;93.00;;;;;;5114139;28;20095;-76
2021/11/09 13:17:37;;;;;;;9.82;2.05;;;16.90;92.60;;;;;;5113196;28;20032;-74
2021/11/09 13:20:17;;;;;;;9.48;2.30;;;16.90;92.20;;;;;;5114772;28;20024;-75
2021/11/09 13:22:55;;;;;;;11.18;2.55;;;16.90;91.90;;;;;;5114276;28;20048;-75
2021/11/09 13:25:43;;;;;;;14.45;2.10;;;16.90;91.60;;;;;;5112925;28;20089;-75
2021/11/09 13:28:12;;;;;;;8.77;2.13;;;16.80;91.30;;;;;;5113971;28;20023;-76
2021/11/09 13:30:40;;;;;;;8.93;2.20;;;16.70;91.30;;;;;;5113154;28;20772;-77
2021/11/09 13:33:08;;;;;;;8.65;1.70;;;16.80;91.60;;;;;;5099859;28;20493;-75
2021/11/09 13:35:45;;;;;;;11.15;1.70;;;17.20;92.00;;;;;;5113975;28;20020;-76
2021/11/09 13:38:24;;;;;;;10.82;2.20;;;17.60;91.60;;;;;;5112623;28;20502;-76
2021/11/09 13:40:51;;;;;;;10.18;2.35;;;17.90;91.30;;;;;;5113831;28;20096;-75
2021/11/09 13:43:29;;;;;;;10.27;2.58;;;18.00;90.50;;;;;;5113666;28;20031;-77
2021/11/09 13:46:04;;;;;;;10.00;2.60;;;18.00;89.90;;;;;;5101778;28;20024;-76
2021/11/09 13:48:32;;;;;;;8.10;2.08;;;17.80;88.50;;;;;;5110223;28;20102;-76
2021/11/09 13:51:00;;;;;;;9.02;2.40;;;17.60;88.10;;;;;;5107887;28;20050;-77
2021/11/09 13:53:29;;;;;;;15.35;2.40;;;17.40;87.70;;;;;;5109417;28;20723;-77
2021/11/09 13:55:55;;;;;;;9.00;2.10;;;17.30;87.90;;;;;;5108553;28;20047;-77
2021/11/09 13:58:21;;;;;;;;;;;17.20;87.30;;;;;;5111307;28;20046;-77
2021/11/09 14:00:51;;;;;;;10.60;1.92;;;17.10;87.80;;;;;;5097188;28;19994;-76
2021/11/09 14:18:58;;;;;;;9.63;2.20;;;16.00;87.20;;;;;;5108043;28;20386;-78
2021/11/09 14:21:33;;;;;;;13.98;3.22;;;15.80;87.10;;;;;;5081122;28;20024;-77
2021/11/09 14:24:09;;;;;;;19.80;5.90;;;15.60;87.30;;;;;;5105201;28;20039;-77
2021/11/09 14:26:35;;;;;;;15.10;3.05;;;15.40;87.50;;;;;;5106688;28;20039;-78
2021/11/09 14:29:01;;;;;;;12.95;4.25;;;15.30;87.90;;;;;;5085276;28;20055;-78
2021/11/09 14:31:37;;;;;;;19.77;3.97;;;15.10;88.30;;;;;;5105970;28;20098;-77
2021/11/09 14:34:17;;;;;;;11.70;2.80;;;15.00;88.70;;;;;;5099759;28;20020;-79
2021/11/09 14:36:46;;;;;;;15.68;3.80;;;14.90;89.00;;;;;;5100645;28;20024;-78
2021/11/09 14:39:25;;;;;;;12.07;2.78;;;14.90;89.30;;;;;;5103673;28;20078;-81
2021/11/09 14:45:08;;;;;;;11.90;2.58;;;14.70;89.60;;;;;;5102001;28;20031;-77
2021/11/09 14:47:48;;;;;;;8.95;2.38;;;14.70;90.00;;;;;;5102691;28;20051;-78
2021/11/09 14:50:24;;;;;;;13.15;2.67;;;14.60;90.00;;;;;;5102102;28;20029;-76
2021/11/09 14:52:51;;;;;;;17.48;3.05;;;14.50;90.10;;;;;;5108640;28;20111;-76
2021/11/09 14:55:38;;;;;;;9.90;2.30;;;14.50;90.20;;;;;;5101120;28;20013;-78
2021/11/09 14:58:04;;;;;;;20.20;3.80;;;14.50;90.40;;;;;;5108623;28;20491;-79
2021/11/09 15:00:30;;;;;;;12.30;3.08;;;14.50;90.40;;;;;;5107975;28;20063;-76
2021/11/09 15:03:02;;;;;;;14.63;3.78;;;14.40;90.50;;;;;;5099720;28;20118;-78
2021/11/09 15:05:32;;;;;;;14.93;3.17;;;14.50;90.70;;;;;;5106355;28;20493;-76
2021/11/09 15:29:36;;;;;;;22.42;5.03;;;15.00;90.50;;;;;;5106010;28;20023;-78
2021/11/09 15:32:11;;;;;;;12.93;2.70;;;15.00;90.50;;;;;;5115163;28;20015;-76
2021/11/09 15:39:50;;;;;;;14.25;3.67;;;15.00;90.20;;;;;;5103382;28;20038;-77
2021/11/09 15:42:17;;;;;;;15.40;3.70;;;15.00;90.10;;;;;;5083164;28;20028;-76
2021/11/09 15:44:43;;;;;;;12.90;2.80;;;15.00;90.10;;;;;;5094789;28;20098;-78
2021/11/09 15:47:10;;;;;;;9.70;3.05;;;14.90;90.00;;;;;;5110997;28;20442;-76
2021/11/09 15:49:36;;;;;;;10.07;3.20;;;14.80;90.00;;;;;;5103978;28;20034;-76
2021/11/09 15:52:03;;;;;;;15.23;2.85;;;14.80;90.00;;;;;;5109853;28;20020;-77
2021/11/09 15:54:28;;;;;;;14.07;3.55;;;14.70;90.10;;;;;;5104376;28;20024;-77
2021/11/09 15:56:54;;;;;;;12.13;4.38;;;14.60;90.20;;;;;;5098296;28;20074;-76
2021/11/09 15:59:20;;;;;;;17.10;4.40;;;14.40;90.30;;;;;;5104011;28;20040;-76